createdAt,value
2022-11-29T00:01:12.027Z,69.29
2022-11-29T00:03:41.188Z,69.52
2022-11-29T00:06:12.003Z,69.12
2022-11-29T00:08:41.262Z,69.21
2022-11-29T00:11:11.130Z,69.07
2022-11-29T00:13:39.070Z,69.65
2022-11-29T00:16:08.615Z,69.36
2022-11-29T00:18:36.696Z,69.37
2022-11-29T00:21:08.124Z,69.45
2022-11-29T00:23:36.088Z,69.45
2022-11-29T00:26:05.454Z,69.09
2022-11-29T00:28:33.180Z,69.33
2022-11-29T00:31:00.999Z,69.58
2022-11-29T00:33:29.163Z,69.16
2022-11-29T00:35:56.973Z,69.20
2022-11-29T00:38:25.988Z,69.31
2022-11-29T00:40:53.675Z,69.13
2022-11-29T00:43:21.461Z,69.46
2022-11-29T00:45:49.160Z,69.54
2022-11-29T00:48:16.989Z,69.34
2022-11-29T00:50:44.737Z,69.31
2022-11-29T00:53:12.499Z,69.61
2022-11-29T00:55:41.692Z,69.20
2022-11-29T00:58:09.371Z,69.57
2022-11-29T01:00:37.066Z,69.33
2022-11-29T01:03:04.818Z,69.73
2022-11-29T01:05:33.009Z,69.62
2022-11-29T01:08:00.736Z,69.80
2022-11-29T01:10:28.935Z,69.63
2022-11-29T01:12:58.066Z,69.82
2022-11-29T01:15:25.897Z,69.31
2022-11-29T01:17:53.769Z,69.67
2022-11-29T01:20:21.838Z,69.00
2022-11-29T01:22:49.538Z,69.07
2022-11-29T01:25:19.266Z,69.52
2022-11-29T01:27:47.904Z,69.09
2022-11-29T01:30:17.219Z,69.51
2022-11-29T01:32:44.957Z,69.33
2022-11-29T01:35:12.704Z,69.26
2022-11-29T01:37:40.434Z,69.07
2022-11-29T01:40:09.449Z,69.09
2022-11-29T01:42:37.191Z,69.18
2022-11-29T01:45:16.897Z,69.43
2022-11-29T01:47:47.130Z,69.50
2022-11-29T01:50:15.624Z,69.50
2022-11-29T01:52:43.607Z,69.35
2022-11-29T01:55:11.545Z,69.35
2022-11-29T01:57:42.133Z,69.32
2022-11-29T02:00:14.238Z,69.33
2022-11-29T02:02:45.435Z,69.45
2022-11-29T02:05:16.704Z,69.23
2022-11-29T02:07:47.059Z,69.19
2022-11-29T02:10:16.532Z,69.51
2022-11-29T02:12:55.275Z,69.54
2022-11-29T02:15:34.416Z,69.46
2022-11-29T02:18:07.661Z,69.52
2022-11-29T02:21:11.036Z,69.10
2022-11-29T02:24:11.240Z,69.79
2022-11-29T02:27:12.837Z,69.59
2022-11-29T02:30:09.964Z,69.32
2022-11-29T02:33:15.656Z,69.83
2022-11-29T02:36:03.704Z,69.43
2022-11-29T02:38:51.183Z,69.85
2022-11-29T02:41:36.881Z,69.29
2022-11-29T02:44:24.392Z,69.40
2022-11-29T02:47:09.262Z,69.37
2022-11-29T02:50:00.193Z,69.55
2022-11-29T02:52:36.189Z,69.71
2022-11-29T02:55:10.518Z,69.20
2022-11-29T02:57:45.636Z,70.00
2022-11-29T03:00:18.962Z,69.58
2022-11-29T03:02:54.154Z,69.74
2022-11-29T03:05:30.518Z,69.83
2022-11-29T03:08:07.308Z,69.81
2022-11-29T03:10:44.242Z,70.13
2022-11-29T03:13:16.501Z,70.05
2022-11-29T03:15:53.351Z,69.61
2022-11-29T03:18:31.362Z,70.07
2022-11-29T03:21:09.413Z,69.69
2022-11-29T03:23:38.726Z,69.91
2022-11-29T03:26:09.645Z,69.88
2022-11-29T03:28:42.541Z,69.88
2022-11-29T03:31:16.980Z,69.79
2022-11-29T03:33:53.583Z,69.70
2022-11-29T03:36:32.212Z,69.97
2022-11-29T03:39:04.750Z,70.08
2022-11-29T03:41:39.065Z,69.78
2022-11-29T03:44:12.436Z,69.80
2022-11-29T03:46:47.387Z,70.05
2022-11-29T03:49:21.768Z,69.78
2022-11-29T03:51:59.682Z,69.85
2022-11-29T03:54:30.669Z,70.41
2022-11-29T03:56:59.027Z,69.97
2022-11-29T03:59:38.992Z,70.37
2022-11-29T04:02:32.622Z,70.19
2022-11-29T04:05:36.732Z,70.10
2022-11-29T04:08:33.524Z,70.70
2022-11-29T04:11:24.154Z,70.20
2022-11-29T04:14:28.779Z,70.51
2022-11-29T04:17:33.757Z,70.19
2022-11-29T04:20:26.819Z,70.18
2022-11-29T04:23:19.038Z,70.04
2022-11-29T04:26:27.772Z,70.67
2022-11-29T04:29:16.741Z,70.37
2022-11-29T04:32:03.900Z,70.30
2022-11-29T04:34:51.192Z,70.53
2022-11-29T04:37:46.284Z,70.12
2022-11-29T04:40:27.834Z,70.34
2022-11-29T04:43:11.498Z,70.55
2022-11-29T04:46:11.725Z,70.38
2022-11-29T04:48:52.440Z,70.31
2022-11-29T04:51:32.605Z,70.60
2022-11-29T04:54:09.790Z,70.66
2022-11-29T04:56:43.925Z,70.30
2022-11-29T04:59:19.560Z,70.83
2022-11-29T05:01:59.946Z,70.64
2022-11-29T05:04:37.242Z,70.47
2022-11-29T05:07:11.332Z,70.07
2022-11-29T05:09:51.092Z,70.19
2022-11-29T05:12:25.168Z,70.55
2022-11-29T05:15:15.502Z,70.32
2022-11-29T05:17:56.817Z,70.47
2022-11-29T05:20:35.417Z,70.71
2022-11-29T05:23:24.298Z,70.55
2022-11-29T05:25:58.202Z,70.08
2022-11-29T05:28:34.244Z,70.54
2022-11-29T05:31:20.201Z,70.08
2022-11-29T05:34:19.710Z,70.25
2022-11-29T05:36:56.834Z,70.51
2022-11-29T05:39:40.754Z,70.21
2022-11-29T05:42:36.921Z,70.19
2022-11-29T05:45:13.635Z,69.81
2022-11-29T05:47:51.049Z,70.14
2022-11-29T05:50:27.964Z,70.39
2022-11-29T05:53:03.096Z,70.74
2022-11-29T05:55:41.386Z,70.56
2022-11-29T05:58:17.303Z,70.29
2022-11-29T06:00:50.803Z,70.62
2022-11-29T06:03:30.554Z,70.49
2022-11-29T06:06:01.719Z,70.46
2022-11-29T06:08:37.953Z,70.29
2022-11-29T06:11:14.583Z,70.41
2022-11-29T06:13:52.069Z,70.39
2022-11-29T06:16:56.844Z,70.36
2022-11-29T06:20:04.223Z,70.26
2022-11-29T06:22:52.880Z,70.24
2022-11-29T06:25:38.211Z,70.51
2022-11-29T06:28:27.757Z,70.66
2022-11-29T06:31:02.138Z,70.76
2022-11-29T06:33:39.527Z,70.29
2022-11-29T06:36:16.867Z,70.66
2022-11-29T06:38:45.016Z,70.30
2022-11-29T06:41:18.627Z,70.32
2022-11-29T06:43:47.017Z,70.23
2022-11-29T06:46:24.871Z,70.88
2022-11-29T06:49:02.152Z,70.50
2022-11-29T06:51:37.996Z,70.35
2022-11-29T06:54:19.590Z,70.51
2022-11-29T06:56:56.760Z,70.40
2022-11-29T06:59:39.903Z,70.44
2022-11-29T07:02:35.580Z,70.44
2022-11-29T07:05:13.891Z,70.05
2022-11-29T07:07:43.431Z,70.75
2022-11-29T07:10:17.353Z,70.86
2022-11-29T07:12:45.991Z,70.85
2022-11-29T07:15:19.046Z,70.79
2022-11-29T07:18:11.246Z,70.41
2022-11-29T07:20:44.975Z,70.36
2022-11-29T07:23:29.507Z,70.26
2022-11-29T07:26:09.616Z,70.89
2022-11-29T07:28:55.757Z,70.33
2022-11-29T07:31:35.523Z,70.36
2022-11-29T07:34:14.336Z,70.85
2022-11-29T07:36:50.468Z,70.23
2022-11-29T07:39:30.310Z,70.95
2022-11-29T07:42:06.820Z,71.09
2022-11-29T07:44:40.093Z,70.58
2022-11-29T07:47:09.680Z,70.42
2022-11-29T07:49:37.466Z,70.52
2022-11-29T07:52:05.224Z,70.97
2022-11-29T07:54:34.292Z,70.53
2022-11-29T07:57:02.006Z,70.48
2022-11-29T07:59:29.660Z,70.93
2022-11-29T08:01:57.400Z,70.37
2022-11-29T08:04:25.226Z,70.24
2022-11-29T08:06:52.948Z,70.93
2022-11-29T08:09:20.742Z,70.39
2022-11-29T08:11:50.006Z,70.85
2022-11-29T08:14:17.730Z,70.74
2022-11-29T08:16:45.518Z,70.00
2022-11-29T08:19:13.341Z,70.16
2022-11-29T08:21:44.322Z,69.63
2022-11-29T08:24:12.030Z,68.89
2022-11-29T08:26:39.996Z,68.36
2022-11-29T08:29:09.394Z,67.56
2022-11-29T08:31:38.661Z,67.15
2022-11-29T08:34:07.227Z,66.47
2022-11-29T08:36:35.133Z,65.90
2022-11-29T08:39:08.997Z,65.48
2022-11-29T08:41:37.432Z,64.93
2022-11-29T08:44:06.036Z,64.73
2022-11-29T08:46:53.209Z,64.46
2022-11-29T08:49:20.970Z,64.10
2022-11-29T08:51:48.619Z,64.12
2022-11-29T08:54:15.338Z,63.89
2022-11-29T08:57:31.072Z,63.83
2022-11-29T08:59:30.730Z,63.70
2022-11-29T09:01:59.914Z,63.61
2022-11-29T09:04:27.762Z,63.49
2022-11-29T09:06:55.427Z,63.51
2022-11-29T09:09:23.140Z,63.61
2022-11-29T09:11:50.848Z,63.45
2022-11-29T09:14:19.923Z,63.51
2022-11-29T09:16:47.689Z,63.37
2022-11-29T09:19:16.947Z,63.35
2022-11-29T09:21:44.591Z,63.18
2022-11-29T09:24:12.286Z,63.31
2022-11-29T09:26:41.801Z,63.21
2022-11-29T09:29:10.224Z,63.22
2022-11-29T09:31:37.965Z,63.47
2022-11-29T09:34:05.702Z,63.43
2022-11-29T09:36:35.018Z,63.37
2022-11-29T09:39:03.692Z,63.49
2022-11-29T09:41:53.067Z,64.10
2022-11-29T09:44:27.947Z,64.74
2022-11-29T09:47:04.765Z,65.58
2022-11-29T09:49:51.962Z,66.35
2022-11-29T09:52:34.970Z,66.77
2022-11-29T09:55:17.546Z,67.49
2022-11-29T09:57:46.248Z,67.95
2022-11-29T10:00:17.080Z,68.15
2022-11-29T10:02:49.504Z,68.19
2022-11-29T10:05:22.910Z,68.64
2022-11-29T10:07:57.622Z,69.09
2022-11-29T10:10:29.861Z,68.72
2022-11-29T10:13:06.216Z,69.18
2022-11-29T10:15:40.234Z,69.25
2022-11-29T10:18:19.836Z,68.63
2022-11-29T10:20:50.696Z,68.47
2022-11-29T10:23:25.002Z,67.56
2022-11-29T10:25:54.650Z,67.13
2022-11-29T10:28:25.829Z,66.89
2022-11-29T10:30:55.649Z,66.53
2022-11-29T10:33:26.663Z,66.01
2022-11-29T10:35:58.785Z,65.57
2022-11-29T10:38:31.797Z,65.45
2022-11-29T10:41:05.532Z,65.45
2022-11-29T10:43:33.294Z,66.07
2022-11-29T10:46:02.543Z,66.58
2022-11-29T10:48:33.994Z,67.30
2022-11-29T10:51:03.437Z,67.62
2022-11-29T10:53:37.091Z,68.12
2022-11-29T10:56:15.109Z,68.31
2022-11-29T10:58:56.433Z,68.75
2022-11-29T11:01:26.374Z,68.65
2022-11-29T11:03:56.377Z,68.84
2022-11-29T11:06:27.419Z,69.17
2022-11-29T11:08:58.529Z,69.40
2022-11-29T11:11:30.152Z,69.31
2022-11-29T11:14:02.478Z,69.51
2022-11-29T11:16:36.760Z,69.96
2022-11-29T11:19:26.289Z,70.04
2022-11-29T11:21:54.764Z,70.59
2022-11-29T11:24:26.195Z,70.26
2022-11-29T11:26:54.065Z,70.62
2022-11-29T11:29:26.567Z,70.71
2022-11-29T11:31:56.885Z,70.47
2022-11-29T11:34:34.184Z,70.33
2022-11-29T11:37:21.260Z,70.01
2022-11-29T11:39:52.286Z,69.84
2022-11-29T11:42:37.934Z,69.88
2022-11-29T11:45:22.032Z,70.28
2022-11-29T11:47:52.970Z,70.04
2022-11-29T11:50:29.361Z,70.23
2022-11-29T11:52:59.693Z,69.37
2022-11-29T11:55:34.258Z,68.91
2022-11-29T11:58:09.687Z,68.00
2022-11-29T12:03:37.339Z,67.05
2022-11-29T12:06:25.722Z,66.45
2022-11-29T12:08:58.561Z,65.83
2022-11-29T12:11:32.569Z,65.54
2022-11-29T12:14:03.202Z,65.11
2022-11-29T12:16:36.882Z,64.77
2022-11-29T12:19:14.768Z,65.14
2022-11-29T12:21:46.696Z,65.67
2022-11-29T12:24:22.673Z,66.33
2022-11-29T12:26:58.349Z,67.02
2022-11-29T12:29:30.170Z,67.77
2022-11-29T12:32:19.010Z,68.23
2022-11-29T12:35:12.656Z,68.55
2022-11-29T12:37:52.398Z,69.04
2022-11-29T12:40:27.337Z,68.98
2022-11-29T12:43:04.435Z,69.38
2022-11-29T12:45:46.176Z,69.12
2022-11-29T12:48:26.704Z,69.52
2022-11-29T12:51:03.495Z,69.65
2022-11-29T12:53:48.873Z,69.75
2022-11-29T12:56:25.137Z,70.13
2022-11-29T12:59:13.343Z,70.20
2022-11-29T13:02:03.976Z,70.42
2022-11-29T13:04:39.886Z,70.26
2022-11-29T13:07:17.771Z,70.61
2022-11-29T13:10:06.064Z,70.82
2022-11-29T13:12:38.553Z,70.73
2022-11-29T13:15:15.697Z,71.01
2022-11-29T13:17:53.013Z,70.91
2022-11-29T13:20:31.745Z,70.73
2022-11-29T13:23:06.666Z,71.14
2022-11-29T13:25:38.605Z,70.87
2022-11-29T13:28:08.406Z,71.04
2022-11-29T13:30:39.670Z,71.11
2022-11-29T13:33:17.095Z,70.92
2022-11-29T13:35:52.193Z,70.42
2022-11-29T13:38:26.381Z,69.80
2022-11-29T13:40:59.200Z,69.16
2022-11-29T13:43:31.898Z,68.26
2022-11-29T13:46:16.069Z,67.93
2022-11-29T13:48:51.802Z,67.33
2022-11-29T13:51:29.466Z,66.78
2022-11-29T13:53:59.308Z,66.23
2022-11-29T13:56:32.640Z,66.34
2022-11-29T13:59:01.489Z,66.40
2022-11-29T14:01:30.668Z,67.04
2022-11-29T14:04:07.839Z,67.53
2022-11-29T14:06:37.719Z,67.89
2022-11-29T14:09:27.356Z,68.47
2022-11-29T14:12:05.058Z,68.86
2022-11-29T14:14:39.217Z,69.11
2022-11-29T14:17:48.737Z,69.22
2022-11-29T14:20:53.388Z,69.63
2022-11-29T14:23:43.142Z,69.95
2022-11-29T14:26:28.771Z,69.98
2022-11-29T14:28:57.770Z,70.14
2022-11-29T14:31:52.088Z,70.13
2022-11-29T14:34:38.939Z,70.31
2022-11-29T14:37:19.466Z,70.15
2022-11-29T14:39:48.923Z,70.48
2022-11-29T14:42:19.173Z,70.54
2022-11-29T14:44:52.181Z,70.61
2022-11-29T14:47:25.501Z,70.54
2022-11-29T14:49:56.788Z,70.36
2022-11-29T14:52:31.556Z,70.15
2022-11-29T14:55:05.968Z,70.14
2022-11-29T14:57:54.945Z,70.18
2022-11-29T15:00:24.391Z,69.92
2022-11-29T15:02:54.465Z,70.38
2022-11-29T15:05:30.482Z,70.34
2022-11-29T15:08:08.500Z,70.34
2022-11-29T15:10:40.163Z,70.67
2022-11-29T15:13:13.246Z,70.13
2022-11-29T15:16:04.257Z,69.44
2022-11-29T15:18:59.689Z,68.72
2022-11-29T15:21:34.471Z,68.74
2022-11-29T15:24:10.393Z,68.28
2022-11-29T15:26:38.137Z,68.39
2022-11-29T15:29:15.569Z,68.50
2022-11-29T15:31:44.732Z,68.75
2022-11-29T15:34:28.533Z,69.26
2022-11-29T15:36:57.700Z,69.32
2022-11-29T15:39:28.574Z,69.83
2022-11-29T15:42:01.685Z,70.09
2022-11-29T15:44:32.559Z,70.27
2022-11-29T15:47:16.643Z,70.11
2022-11-29T15:49:44.469Z,70.27
2022-11-29T15:52:20.637Z,70.56
2022-11-29T15:54:53.193Z,70.68
2022-11-29T15:57:26.640Z,70.87
2022-11-29T15:59:56.970Z,70.71
2022-11-29T16:02:27.725Z,70.69
2022-11-29T16:04:58.989Z,71.06
2022-11-29T16:07:32.357Z,70.98
2022-11-29T16:10:05.167Z,70.70
2022-11-29T16:12:33.319Z,71.12
2022-11-29T16:15:02.128Z,71.09
2022-11-29T16:17:32.729Z,70.98
2022-11-29T16:20:23.476Z,71.14
2022-11-29T16:23:05.945Z,70.80
2022-11-29T16:25:37.558Z,71.09
2022-11-29T16:28:06.957Z,70.85
2022-11-29T16:30:34.728Z,71.17
2022-11-29T16:33:03.874Z,71.09
2022-11-29T16:35:33.856Z,70.99
2022-11-29T16:38:05.676Z,71.15
2022-11-29T16:40:35.682Z,71.04
2022-11-29T16:43:09.279Z,70.96
2022-11-29T16:45:38.516Z,71.29
2022-11-29T16:48:29.649Z,71.09
2022-11-29T16:51:16.171Z,71.00
2022-11-29T16:53:47.788Z,70.94
2022-11-29T16:56:17.763Z,70.89
2022-11-29T16:59:25.740Z,71.08
2022-11-29T17:01:36.339Z,71.20
2022-11-29T17:04:04.138Z,71.04
2022-11-29T17:06:31.992Z,71.29
2022-11-29T17:09:01.093Z,70.96
2022-11-29T17:11:28.871Z,71.10
2022-11-29T17:13:56.685Z,70.76
2022-11-29T17:16:25.859Z,70.70
2022-11-29T17:18:53.883Z,70.83
2022-11-29T17:21:23.966Z,70.56
2022-11-29T17:23:52.308Z,70.99
2022-11-29T17:26:22.326Z,70.86
2022-11-29T17:28:51.750Z,70.63
2022-11-29T17:31:21.544Z,70.88
2022-11-29T17:33:49.754Z,70.67
2022-11-29T17:36:19.313Z,70.64
2022-11-29T17:38:47.394Z,70.72
2022-11-29T17:41:17.268Z,70.80
2022-11-29T17:43:46.264Z,70.65
2022-11-29T17:46:15.856Z,70.79
2022-11-29T17:48:46.197Z,70.69
2022-11-29T17:51:43.570Z,70.69
2022-11-29T17:54:04.367Z,70.44
2022-11-29T17:56:32.217Z,70.54
2022-11-29T17:59:03.463Z,70.85
2022-11-29T18:01:33.387Z,70.39
2022-11-29T18:04:02.509Z,70.67
2022-11-29T18:06:31.826Z,70.48
2022-11-29T18:09:01.366Z,70.65
2022-11-29T18:11:30.686Z,70.81
2022-11-29T18:13:59.636Z,70.72
2022-11-29T18:16:30.487Z,70.60
2022-11-29T18:19:00.618Z,70.46
2022-11-29T18:21:28.927Z,70.54
2022-11-29T18:23:56.774Z,70.38
2022-11-29T18:26:26.353Z,70.72
2022-11-29T18:28:54.278Z,70.36
2022-11-29T18:31:23.837Z,70.64
2022-11-29T18:33:54.995Z,70.06
2022-11-29T18:36:24.364Z,70.36
2022-11-29T18:38:56.685Z,70.05
2022-11-29T18:41:25.677Z,70.50
2022-11-29T18:43:57.824Z,70.20
2022-11-29T18:46:26.289Z,69.96
2022-11-29T18:48:55.436Z,69.96
2022-11-29T18:51:23.081Z,70.20
2022-11-29T18:53:50.736Z,69.92
2022-11-29T18:56:22.127Z,69.83
2022-11-29T18:58:58.197Z,69.92
2022-11-29T19:01:27.971Z,69.67
2022-11-29T19:03:59.573Z,69.63
2022-11-29T19:06:32.839Z,69.73
2022-11-29T19:09:06.212Z,69.48
2022-11-29T19:11:34.508Z,69.43
2022-11-29T19:14:04.520Z,69.40
2022-11-29T19:16:34.825Z,69.42
2022-11-29T19:19:04.293Z,69.24
2022-11-29T19:21:34.390Z,69.04
2022-11-29T19:24:03.942Z,69.47
2022-11-29T19:26:32.813Z,69.41
2022-11-29T19:29:02.107Z,69.48
2022-11-29T19:31:30.283Z,69.20
2022-11-29T19:33:58.739Z,69.54
2022-11-29T19:36:29.209Z,69.29
2022-11-29T19:38:57.625Z,69.64
2022-11-29T19:41:26.935Z,69.61
2022-11-29T19:43:54.904Z,69.71
2022-11-29T19:46:24.936Z,69.74
2022-11-29T19:48:53.638Z,69.77
2022-11-29T19:51:22.381Z,69.44
2022-11-29T19:53:53.403Z,69.53
2022-11-29T19:56:21.897Z,69.65
2022-11-29T19:58:49.855Z,69.88
2022-11-29T20:01:20.260Z,69.96
2022-11-29T20:03:48.029Z,70.13
2022-11-29T20:06:16.781Z,70.30
2022-11-29T20:08:45.304Z,70.28
2022-11-29T20:11:16.347Z,69.90
2022-11-29T20:13:46.623Z,70.14
2022-11-29T20:16:15.716Z,70.52
2022-11-29T20:18:50.376Z,70.26
2022-11-29T20:21:21.742Z,70.24
2022-11-29T20:23:49.876Z,70.23
2022-11-29T20:26:21.184Z,70.06
2022-11-29T20:28:48.925Z,70.42
2022-11-29T20:31:21.247Z,70.24
2022-11-29T20:33:50.796Z,70.30
2022-11-29T20:36:29.781Z,70.13
2022-11-29T20:39:04.951Z,70.50
2022-11-29T20:41:42.606Z,70.40
2022-11-29T20:44:15.689Z,70.58
2022-11-29T20:46:43.691Z,70.27
2022-11-29T20:49:14.250Z,70.56
2022-11-29T20:51:50.471Z,70.23
2022-11-29T20:54:20.293Z,70.45
2022-11-29T20:56:49.315Z,70.79
2022-11-29T20:59:17.172Z,70.84
2022-11-29T21:01:44.884Z,70.66
2022-11-29T21:04:12.590Z,70.43
2022-11-29T21:06:40.792Z,70.90
2022-11-29T21:09:08.794Z,70.37
2022-11-29T21:11:36.964Z,70.73
2022-11-29T21:14:09.078Z,70.38
2022-11-29T21:16:37.152Z,70.71
2022-11-29T21:19:05.596Z,70.55
2022-11-29T21:21:38.724Z,70.79
2022-11-29T21:24:13.107Z,70.71
2022-11-29T21:26:45.697Z,70.87
2022-11-29T21:29:17.185Z,70.45
2022-11-29T21:31:45.660Z,70.43
2022-11-29T21:34:13.395Z,70.84
2022-11-29T21:36:41.817Z,70.85
2022-11-29T21:39:13.481Z,70.91
2022-11-29T21:41:41.487Z,70.67
2022-11-29T21:44:09.276Z,70.44
2022-11-29T21:46:38.380Z,70.94
2022-11-29T21:49:06.232Z,70.87
2022-11-29T21:51:34.576Z,70.51
2022-11-29T21:54:02.704Z,70.66
2022-11-29T21:56:30.411Z,70.48
2022-11-29T21:58:58.127Z,70.57
2022-11-29T22:01:27.191Z,70.56
2022-11-29T22:03:56.822Z,70.81
2022-11-29T22:06:26.143Z,70.65
2022-11-29T22:08:53.863Z,70.94
2022-11-29T22:11:31.499Z,70.49
2022-11-29T22:14:16.197Z,70.94
2022-11-29T22:16:48.195Z,70.71
2022-11-29T22:19:18.668Z,70.63
2022-11-29T22:21:48.130Z,70.64
2022-11-29T22:24:17.397Z,71.12
2022-11-29T22:26:45.389Z,71.17
2022-11-29T22:29:14.685Z,71.13
2022-11-29T22:31:43.741Z,71.02
2022-11-29T22:34:12.411Z,70.97
2022-11-29T22:36:42.321Z,71.00
2022-11-29T22:39:12.621Z,71.00
2022-11-29T22:41:41.258Z,71.11
2022-11-29T22:44:08.967Z,70.89
2022-11-29T22:46:36.745Z,70.75
2022-11-29T22:49:04.781Z,71.19
2022-11-29T22:51:34.750Z,71.17
2022-11-29T22:54:05.622Z,71.42
2022-11-29T22:56:35.038Z,71.38
2022-11-29T22:59:02.856Z,71.31
2022-11-29T23:01:32.436Z,71.08
2022-11-29T23:04:03.927Z,71.57
2022-11-29T23:06:33.787Z,71.48
2022-11-29T23:09:07.774Z,71.64
2022-11-29T23:11:35.471Z,71.53
2022-11-29T23:14:03.373Z,71.54
2022-11-29T23:16:32.712Z,71.67
2022-11-29T23:19:01.128Z,71.50
2022-11-29T23:21:30.477Z,71.08
2022-11-29T23:24:00.803Z,71.37
2022-11-29T23:26:33.865Z,71.30
2022-11-29T23:29:01.537Z,71.46
2022-11-29T23:31:29.644Z,71.20
2022-11-29T23:33:57.366Z,71.18
2022-11-29T23:36:25.032Z,71.56
2022-11-29T23:38:52.869Z,71.10
2022-11-29T23:41:20.629Z,71.04
2022-11-29T23:43:49.633Z,71.55
2022-11-29T23:46:19.247Z,71.25
2022-11-29T23:48:48.463Z,71.38
2022-11-29T23:51:17.075Z,71.61
2022-11-29T23:53:44.843Z,71.55
2022-11-29T23:56:14.834Z,71.39
2022-11-29T23:58:43.442Z,71.25
